createdAt,value
2023-04-22T00:00:42.968Z,100563.00
2023-04-22T00:03:29.301Z,100559.88
2023-04-22T00:05:58.004Z,100551.69
2023-04-22T00:08:27.670Z,100543.06
2023-04-22T00:11:03.456Z,100553.97
2023-04-22T00:13:33.160Z,100549.88
2023-04-22T00:16:04.771Z,100541.75
2023-04-22T00:18:37.797Z,100542.38
2023-04-22T00:21:13.824Z,100541.75
2023-04-22T00:23:50.586Z,100538.28
2023-04-22T00:26:21.316Z,100532.00
2023-04-22T00:28:51.144Z,100529.38
2023-04-22T00:31:20.906Z,100527.31
2023-04-22T00:34:00.760Z,100515.09
2023-04-22T00:36:35.512Z,100511.63
2023-04-22T00:39:06.958Z,100505.38
2023-04-22T00:41:35.778Z,100500.66
2023-04-22T00:44:11.221Z,100492.53
2023-04-22T00:47:02.830Z,100497.00
2023-04-22T00:49:39.229Z,100486.31
2023-04-22T00:52:15.108Z,100497.81
2023-04-22T00:54:44.709Z,100486.44
2023-04-22T00:57:14.369Z,100494.81
2023-04-22T00:59:44.415Z,100491.22
2023-04-22T01:02:14.366Z,100484.78
2023-04-22T01:04:44.832Z,100491.97
2023-04-22T01:07:14.433Z,100481.53
2023-04-22T01:09:43.529Z,100483.53
2023-04-22T01:12:28.138Z,100469.53
2023-04-22T01:14:58.338Z,100480.91
2023-04-22T01:17:27.136Z,100472.16
2023-04-22T01:20:11.502Z,100465.56
2023-04-22T01:22:44.256Z,100455.75
2023-04-22T01:25:16.098Z,100452.63
2023-04-22T01:27:46.590Z,100436.56
2023-04-22T01:30:19.221Z,100436.44
2023-04-22T01:32:49.363Z,100425.75
2023-04-22T01:35:37.265Z,100423.09
2023-04-22T01:38:07.420Z,100421.84
2023-04-22T01:40:37.588Z,100412.22
2023-04-22T01:43:08.197Z,100424.56
2023-04-22T01:45:42.901Z,100419.91
2023-04-22T01:48:17.827Z,100420.25
2023-04-22T01:50:47.472Z,100426.16
2023-04-22T01:53:17.126Z,100423.72
2023-04-22T01:55:46.993Z,100421.09
2023-04-22T01:58:16.607Z,100430.78
2023-04-22T02:00:45.303Z,100418.69
2023-04-22T02:03:16.446Z,100414.63
2023-04-22T02:05:44.966Z,100411.03
2023-04-22T02:08:15.441Z,100414.63
2023-04-22T02:10:46.577Z,100416.03
2023-04-22T02:13:17.367Z,100416.16
2023-04-22T02:15:47.260Z,100410.28
2023-04-22T02:18:18.152Z,100402.13
2023-04-22T02:20:48.880Z,100410.41
2023-04-22T02:23:19.616Z,100409.09
2023-04-22T02:25:52.185Z,100398.06
2023-04-22T02:28:23.505Z,100398.91
2023-04-22T02:30:53.132Z,100395.81
2023-04-22T02:33:28.979Z,100389.09
2023-04-22T02:36:00.703Z,100382.63
2023-04-22T02:38:39.896Z,100384.78
2023-04-22T02:41:09.848Z,100377.38
2023-04-22T02:43:42.561Z,100379.88
2023-04-22T02:46:13.725Z,100383.34
2023-04-22T02:48:42.292Z,100378.91
2023-04-22T02:51:18.979Z,100370.53
2023-04-22T02:53:51.095Z,100370.66
2023-04-22T02:56:21.589Z,100364.75
2023-04-22T02:58:56.010Z,100355.66
2023-04-22T03:01:25.849Z,100356.63
2023-04-22T03:03:54.601Z,100367.53
2023-04-22T03:06:25.430Z,100358.66
2023-04-22T03:08:57.997Z,100355.19
2023-04-22T03:11:35.102Z,100351.94
2023-04-22T03:14:06.306Z,100348.00
2023-04-22T03:16:35.379Z,100342.97
2023-04-22T03:19:05.128Z,100338.53
2023-04-22T03:21:34.771Z,100333.50
2023-04-22T03:24:04.392Z,100332.69
2023-04-22T03:26:35.466Z,100331.31
2023-04-22T03:29:04.101Z,100323.31
2023-04-22T03:32:05.661Z,100315.16
2023-04-22T03:34:43.543Z,100306.78
2023-04-22T03:37:13.197Z,100299.94
2023-04-22T03:39:48.635Z,100299.94
2023-04-22T03:42:19.820Z,100303.19
2023-04-22T03:44:49.542Z,100291.31
2023-04-22T03:47:27.232Z,100292.03
2023-04-22T03:49:56.720Z,100283.53
2023-04-22T03:52:28.166Z,100278.28
2023-04-22T03:54:58.071Z,100274.06
2023-04-22T03:57:27.977Z,100270.72
2023-04-22T03:59:57.584Z,100266.75
2023-04-22T04:02:28.108Z,100271.09
2023-04-22T04:04:57.831Z,100260.63
2023-04-22T04:07:26.841Z,100252.13
2023-04-22T04:10:01.665Z,100257.31
2023-04-22T04:12:31.678Z,100257.78
2023-04-22T04:15:01.037Z,100254.41
2023-04-22T04:17:35.642Z,100253.47
2023-04-22T04:20:04.477Z,100251.53
2023-04-22T04:22:35.712Z,100250.34
2023-04-22T04:25:08.862Z,100238.97
2023-04-22T04:27:42.340Z,100242.22
2023-04-22T04:30:18.139Z,100230.34
2023-04-22T04:32:46.615Z,100231.53
2023-04-22T04:35:15.718Z,100222.91
2023-04-22T04:37:48.278Z,100221.25
2023-04-22T04:40:19.226Z,100209.03
2023-04-22T04:43:02.808Z,100207.34
2023-04-22T04:45:48.365Z,100203.88
2023-04-22T04:48:17.752Z,100199.81
2023-04-22T04:50:46.261Z,100184.97
2023-04-22T04:53:14.708Z,100184.97
2023-04-22T04:55:43.451Z,100177.16
2023-04-22T04:58:13.480Z,100179.69
2023-04-22T05:00:56.285Z,100174.31
2023-04-22T05:03:31.962Z,100177.31
2023-04-22T05:06:01.663Z,100175.59
2023-04-22T05:08:31.374Z,100168.31
2023-04-22T05:11:05.829Z,100167.59
2023-04-22T05:13:38.321Z,100169.28
2023-04-22T05:16:07.368Z,100166.03
2023-04-22T05:18:36.106Z,100173.09
2023-04-22T05:21:20.783Z,100179.78
2023-04-22T05:23:57.355Z,100176.81
2023-04-22T05:26:36.153Z,100171.44
2023-04-22T05:29:07.110Z,100167.50
2023-04-22T05:31:43.863Z,100156.97
2023-04-22T05:34:37.241Z,100159.47
2023-04-22T05:37:06.998Z,100163.16
2023-04-22T05:39:43.920Z,100163.63
2023-04-22T05:42:12.606Z,100155.03
2023-04-22T05:44:51.691Z,100149.06
2023-04-22T05:47:26.175Z,100153.22
2023-04-22T05:50:02.106Z,100159.56
2023-04-22T05:52:37.587Z,100155.75
2023-04-22T05:55:08.711Z,100154.78
2023-04-22T05:57:39.791Z,100160.41
2023-04-22T06:00:15.665Z,100162.53
2023-04-22T06:02:46.513Z,100155.16
2023-04-22T06:05:22.503Z,100159.53
2023-04-22T06:08:05.607Z,100150.94
2023-04-22T06:10:41.417Z,100153.25
2023-04-22T06:13:17.623Z,100151.19
2023-04-22T06:15:47.680Z,100150.97
2023-04-22T06:18:18.260Z,100147.59
2023-04-22T06:20:48.742Z,100147.97
2023-04-22T06:23:23.320Z,100139.69
2023-04-22T06:25:52.207Z,100139.69
2023-04-22T06:28:21.883Z,100132.88
2023-04-22T06:30:57.898Z,100139.31
2023-04-22T06:33:45.700Z,100132.72
2023-04-22T06:36:18.325Z,100138.00
2023-04-22T06:38:46.687Z,100127.22
2023-04-22T06:41:15.549Z,100121.97
2023-04-22T06:43:44.089Z,100117.16
2023-04-22T06:46:15.464Z,100110.69
2023-04-22T06:48:50.928Z,100115.06
2023-04-22T06:51:26.660Z,100116.41
2023-04-22T06:53:55.500Z,100100.22
2023-04-22T06:56:25.017Z,100093.59
2023-04-22T06:58:53.537Z,100090.66
2023-04-22T07:01:23.747Z,100093.38
2023-04-22T07:03:52.291Z,100093.38
2023-04-22T07:06:23.966Z,100088.91
2023-04-22T07:08:54.602Z,100093.06
2023-04-22T07:11:24.275Z,100093.66
2023-04-22T07:13:53.929Z,100078.72
2023-04-22T07:16:25.287Z,100079.50
2023-04-22T07:18:55.186Z,100087.78
2023-04-22T07:21:26.650Z,100084.22
2023-04-22T07:23:55.157Z,100076.44
2023-04-22T07:26:26.000Z,100085.03
2023-04-22T07:28:54.697Z,100082.00
2023-04-22T07:31:31.777Z,100077.72
2023-04-22T07:34:04.440Z,100074.72
2023-04-22T07:36:34.073Z,100068.97
2023-04-22T07:39:11.668Z,100064.91
2023-04-22T07:41:47.992Z,100058.34
2023-04-22T07:44:21.967Z,100064.69
2023-04-22T07:46:52.550Z,100061.72
2023-04-22T07:49:28.190Z,100055.41
2023-04-22T07:51:56.772Z,100055.16
2023-04-22T07:54:25.204Z,100049.63
2023-04-22T07:56:53.514Z,100049.38
2023-04-22T07:59:23.032Z,100042.31
2023-04-22T08:01:53.675Z,100049.94
2023-04-22T08:04:35.852Z,100044.81
2023-04-22T08:07:17.189Z,100042.41
2023-04-22T08:09:54.040Z,100044.09
2023-04-22T08:12:22.620Z,100035.97
2023-04-22T08:14:52.768Z,100041.72
2023-04-22T08:17:23.771Z,100038.97
2023-04-22T08:19:52.415Z,100044.13
2023-04-22T08:22:20.907Z,100046.28
2023-04-22T08:24:56.392Z,100046.88
2023-04-22T08:27:32.910Z,100045.59
2023-04-22T08:30:02.650Z,100045.59
2023-04-22T08:32:32.863Z,100045.59
2023-04-22T08:35:04.943Z,100039.34
2023-04-22T08:37:36.270Z,100037.69
2023-04-22T08:40:05.528Z,100039.97
2023-04-22T08:42:36.714Z,100034.78
2023-04-22T08:45:11.362Z,100027.03
2023-04-22T08:47:44.273Z,100013.94
2023-04-22T08:50:13.862Z,100016.31
2023-04-22T08:52:44.022Z,100015.56
2023-04-22T08:55:12.598Z,100014.22
2023-04-22T08:57:42.414Z,100013.56
2023-04-22T09:00:19.130Z,100022.72
2023-04-22T09:03:02.666Z,100025.16
2023-04-22T09:05:35.521Z,100024.25
2023-04-22T09:08:05.306Z,100021.75
2023-04-22T09:10:34.319Z,100021.00
2023-04-22T09:13:04.820Z,100029.97
2023-04-22T09:15:33.373Z,100032.59
2023-04-22T09:18:04.453Z,100026.81
2023-04-22T09:20:33.336Z,100026.28
2023-04-22T09:23:05.520Z,100023.50
2023-04-22T09:25:36.603Z,100020.16
2023-04-22T09:28:05.521Z,100018.97
2023-04-22T09:30:36.238Z,100014.31
2023-04-22T09:33:07.738Z,100012.59
2023-04-22T09:35:38.433Z,100013.88
2023-04-22T09:38:09.487Z,100004.75
2023-04-22T09:40:39.862Z,100013.00
2023-04-22T09:43:10.841Z,100009.47
2023-04-22T09:45:41.632Z,100002.97
2023-04-22T09:48:14.401Z,100011.38
2023-04-22T09:50:46.614Z,100009.34
2023-04-22T09:53:17.778Z,100007.09
2023-04-22T09:55:50.751Z,100015.50
2023-04-22T09:58:21.235Z,100010.97
2023-04-22T10:00:53.627Z,100009.50
2023-04-22T10:03:25.253Z,100009.53
2023-04-22T10:05:54.139Z,100008.13
2023-04-22T10:08:22.894Z,100005.81
2023-04-22T10:10:51.623Z,99995.50
2023-04-22T10:13:19.969Z,99998.97
2023-04-22T10:15:53.586Z,99994.13
2023-04-22T10:18:27.457Z,99986.63
2023-04-22T10:20:59.135Z,99987.72
2023-04-22T10:23:28.307Z,99984.94
2023-04-22T10:25:57.989Z,99980.47
2023-04-22T10:28:37.529Z,99975.59
2023-04-22T10:31:08.580Z,99977.84
2023-04-22T10:33:42.040Z,99975.22
2023-04-22T10:36:17.003Z,99979.34
2023-04-22T10:39:19.385Z,99977.66
2023-04-22T10:41:54.330Z,99977.09
2023-04-22T10:44:23.835Z,99976.63
2023-04-22T10:47:00.200Z,99984.47
2023-04-22T10:49:32.979Z,99975.25
2023-04-22T10:52:04.444Z,99969.19
2023-04-22T10:55:03.358Z,99973.00
2023-04-22T10:58:01.216Z,99975.63
2023-04-22T11:00:53.037Z,99978.16
2023-04-22T11:03:29.622Z,99973.16
2023-04-22T11:06:22.599Z,99982.13
2023-04-22T11:09:10.104Z,99983.31
2023-04-22T11:11:39.819Z,99979.13
2023-04-22T11:14:10.975Z,99985.78
2023-04-22T11:16:48.611Z,99985.31
2023-04-22T11:19:18.362Z,99976.66
2023-04-22T11:21:50.102Z,99979.78
2023-04-22T11:24:22.724Z,99974.88
2023-04-22T11:26:52.350Z,99978.25
2023-04-22T11:29:22.204Z,99980.00
2023-04-22T11:31:52.984Z,99978.63
2023-04-22T11:34:22.616Z,99972.47
2023-04-22T11:36:53.211Z,99974.03
2023-04-22T11:39:21.700Z,99969.88
2023-04-22T11:41:57.244Z,99973.81
2023-04-22T11:44:26.806Z,99974.75
2023-04-22T11:46:58.698Z,99975.84
2023-04-22T11:49:28.147Z,99970.22
2023-04-22T11:51:58.983Z,99969.25
2023-04-22T11:54:34.894Z,99977.72
2023-04-22T11:57:05.419Z,99972.38
2023-04-22T11:59:33.819Z,99984.34
2023-04-22T12:02:06.326Z,99985.25
2023-04-22T12:04:38.782Z,99991.13
2023-04-22T12:07:09.150Z,99990.44
2023-04-22T12:09:45.771Z,99986.63
2023-04-22T12:12:20.277Z,99989.47
2023-04-22T12:14:49.918Z,99985.78
2023-04-22T12:17:23.847Z,99986.41
2023-04-22T12:19:56.031Z,99986.00
2023-04-22T12:22:33.868Z,99988.53
2023-04-22T12:25:03.534Z,99980.56
2023-04-22T12:27:32.194Z,99985.09
2023-04-22T12:30:01.906Z,99984.03
2023-04-22T12:32:30.592Z,99978.28
2023-04-22T12:35:00.267Z,99971.91
2023-04-22T12:37:39.376Z,99978.47
2023-04-22T12:40:14.332Z,99986.91
2023-04-22T12:42:59.839Z,99996.34
2023-04-22T12:45:31.106Z,99997.69
2023-04-22T12:48:05.758Z,99992.31
2023-04-22T12:50:41.056Z,99986.22
2023-04-22T12:53:13.089Z,99991.47
2023-04-22T12:55:44.541Z,99985.66
2023-04-22T12:58:15.565Z,99989.81
2023-04-22T13:00:44.081Z,99984.13
2023-04-22T13:03:23.116Z,99984.25
2023-04-22T13:06:03.781Z,99987.22
2023-04-22T13:08:34.990Z,99986.78
2023-04-22T13:11:05.358Z,99983.44
2023-04-22T13:14:11.114Z,99983.06
2023-04-22T13:16:59.463Z,99985.31
2023-04-22T13:19:35.899Z,99981.50
2023-04-22T13:22:16.279Z,99985.09
2023-04-22T13:24:46.248Z,99981.88
2023-04-22T13:27:16.053Z,99968.25
2023-04-22T13:29:45.026Z,99975.03
2023-04-22T13:32:15.017Z,99973.38
2023-04-22T13:35:03.411Z,99973.72
2023-04-22T13:37:32.923Z,99978.53
2023-04-22T13:40:11.093Z,99981.25
2023-04-22T13:42:52.721Z,99975.06
2023-04-22T13:45:23.993Z,99985.94
2023-04-22T13:48:02.566Z,99979.63
2023-04-22T13:50:36.397Z,99972.66
2023-04-22T13:53:16.631Z,99965.13
2023-04-22T13:55:48.949Z,99971.34
2023-04-22T13:58:19.422Z,99973.63
2023-04-22T14:00:56.350Z,99967.28
2023-04-22T14:03:27.007Z,99975.03
2023-04-22T14:05:56.988Z,99974.69
2023-04-22T14:08:26.788Z,99966.69
2023-04-22T14:10:57.384Z,99966.19
2023-04-22T14:13:40.859Z,99958.78
2023-04-22T14:16:22.470Z,99957.22
2023-04-22T14:19:02.967Z,99951.03
2023-04-22T14:21:33.813Z,99950.06
2023-04-22T14:24:02.511Z,99939.91
2023-04-22T14:26:41.703Z,99937.97
2023-04-22T14:29:12.254Z,99933.16
2023-04-22T14:31:42.388Z,99936.72
2023-04-22T14:34:12.227Z,99932.88
2023-04-22T14:36:47.864Z,99930.84
2023-04-22T14:39:53.814Z,99927.75
2023-04-22T14:42:29.380Z,99930.47
2023-04-22T14:45:20.149Z,99934.53
2023-04-22T14:47:55.054Z,99942.06
2023-04-22T14:50:23.689Z,99943.22
2023-04-22T14:52:52.399Z,99935.56
2023-04-22T14:55:26.172Z,99938.41
2023-04-22T14:57:58.666Z,99934.19
2023-04-22T15:00:40.267Z,99926.66
2023-04-22T15:03:09.305Z,99924.88
2023-04-22T15:05:38.866Z,99926.16
2023-04-22T15:08:13.521Z,99924.81
2023-04-22T15:10:42.120Z,99923.31
2023-04-22T15:13:23.977Z,99921.13
2023-04-22T15:15:55.142Z,99918.88
2023-04-22T15:18:23.935Z,99921.41
2023-04-22T15:20:55.018Z,99916.16
2023-04-22T15:23:26.780Z,99915.88
2023-04-22T15:26:05.535Z,99924.97
2023-04-22T15:28:36.023Z,99924.88
2023-04-22T15:31:04.543Z,99921.56
2023-04-22T15:33:33.502Z,99917.81
2023-04-22T15:36:07.143Z,99921.41
2023-04-22T15:38:40.272Z,99919.47
2023-04-22T15:41:09.135Z,99916.09
2023-04-22T15:43:57.091Z,99913.31
2023-04-22T15:46:29.282Z,99913.53
2023-04-22T15:48:59.047Z,99913.16
2023-04-22T15:51:27.881Z,99910.75
2023-04-22T15:53:59.126Z,99915.03
2023-04-22T15:56:35.225Z,99909.88
2023-04-22T15:59:05.206Z,99902.31
2023-04-22T16:01:34.292Z,99903.34
2023-04-22T16:04:03.289Z,99903.25
2023-04-22T16:06:32.328Z,99903.44
2023-04-22T16:09:00.936Z,99903.44
2023-04-22T16:11:30.961Z,99895.34
2023-04-22T16:13:59.499Z,99890.28
2023-04-22T16:16:29.554Z,99898.72
2023-04-22T16:18:58.346Z,99896.38
2023-04-22T16:21:28.872Z,99893.88
2023-04-22T16:23:59.130Z,99895.34
2023-04-22T16:26:27.658Z,99885.44
2023-04-22T16:28:56.529Z,99889.88
2023-04-22T16:31:25.299Z,99884.84
2023-04-22T16:33:58.860Z,99875.38
2023-04-22T16:36:29.240Z,99882.66
2023-04-22T16:38:57.930Z,99879.00
2023-04-22T16:41:32.748Z,99880.78
2023-04-22T16:44:01.130Z,99879.63
2023-04-22T16:46:30.813Z,99880.31
2023-04-22T16:49:01.068Z,99876.63
2023-04-22T16:51:29.790Z,99883.03
2023-04-22T16:54:00.388Z,99872.69
2023-04-22T16:56:30.098Z,99863.09
2023-04-22T16:59:00.416Z,99869.84
2023-04-22T17:01:31.418Z,99870.22
2023-04-22T17:04:01.810Z,99886.13
2023-04-22T17:06:31.366Z,99882.59
2023-04-22T17:09:01.209Z,99875.25
2023-04-22T17:11:32.503Z,99870.09
2023-04-22T17:14:00.971Z,99864.97
2023-04-22T17:16:31.380Z,99861.41
2023-04-22T17:19:02.519Z,99869.41
2023-04-22T17:21:34.497Z,99859.94
2023-04-22T17:24:05.189Z,99853.75
2023-04-22T17:26:35.374Z,99852.56
2023-04-22T17:29:05.590Z,99852.72
2023-04-22T17:31:34.970Z,99849.34
2023-04-22T17:34:06.093Z,99854.56
2023-04-22T17:36:34.538Z,99853.47
2023-04-22T17:39:03.226Z,99844.47
2023-04-22T17:41:31.963Z,99846.84
2023-04-22T17:44:01.432Z,99849.19
2023-04-22T17:46:31.254Z,99843.31
2023-04-22T17:49:00.549Z,99845.50
2023-04-22T17:51:31.798Z,99849.59
2023-04-22T17:54:01.464Z,99849.75
2023-04-22T17:56:29.910Z,99854.16
2023-04-22T17:59:01.442Z,99858.97
2023-04-22T18:01:30.718Z,99860.31
2023-04-22T18:04:00.582Z,99856.97
2023-04-22T18:06:32.639Z,99862.09
2023-04-22T18:09:01.194Z,99863.28
2023-04-22T18:11:30.207Z,99858.88
2023-04-22T18:13:58.631Z,99853.97
2023-04-22T18:16:27.000Z,99862.00
2023-04-22T18:18:55.301Z,99857.56
2023-04-22T18:21:23.876Z,99857.78
2023-04-22T18:23:54.088Z,99847.53
2023-04-22T18:26:23.673Z,99848.72
2023-04-22T18:28:52.244Z,99850.38
2023-04-22T18:31:22.386Z,99849.41
2023-04-22T18:33:57.205Z,99857.69
2023-04-22T18:36:25.868Z,99847.53
2023-04-22T18:38:56.152Z,99860.19
2023-04-22T18:41:25.470Z,99854.09
2023-04-22T18:43:55.087Z,99854.09
2023-04-22T18:46:25.934Z,99850.38
2023-04-22T18:48:54.341Z,99848.50
2023-04-22T18:51:25.917Z,99852.66
2023-04-22T18:53:57.013Z,99852.28
2023-04-22T18:56:25.841Z,99846.94
2023-04-22T18:58:55.450Z,99845.25
2023-04-22T19:01:24.450Z,99848.72
2023-04-22T19:03:54.328Z,99845.25
2023-04-22T19:06:22.941Z,99845.97
2023-04-22T19:08:53.183Z,99856.50
2023-04-22T19:11:25.740Z,99854.09
2023-04-22T19:13:54.301Z,99855.75
2023-04-22T19:16:28.155Z,99859.59
2023-04-22T19:19:01.676Z,99863.78
2023-04-22T19:21:37.178Z,99872.63
2023-04-22T19:24:06.081Z,99871.53
2023-04-22T19:26:42.940Z,99873.31
2023-04-22T19:29:16.834Z,99868.91
2023-04-22T19:31:47.927Z,99870.47
2023-04-22T19:34:16.559Z,99864.16
2023-04-22T19:36:46.054Z,99869.50
2023-04-22T19:39:15.835Z,99865.34
2023-04-22T19:41:51.269Z,99864.00
2023-04-22T19:44:20.280Z,99872.38
2023-04-22T19:46:55.147Z,99871.53
2023-04-22T19:49:26.081Z,99869.13
2023-04-22T19:52:04.824Z,99877.50
2023-04-22T19:54:34.800Z,99881.09
2023-04-22T19:57:06.776Z,99873.09
2023-04-22T19:59:36.079Z,99879.44
2023-04-22T20:02:05.073Z,99879.78
2023-04-22T20:04:34.173Z,99879.66
2023-04-22T20:07:05.719Z,99881.44
2023-04-22T20:09:38.403Z,99883.97
2023-04-22T20:12:11.320Z,99880.38
2023-04-22T20:14:41.193Z,99880.03
2023-04-22T20:17:10.256Z,99874.31
2023-04-22T20:19:39.608Z,99878.72
2023-04-22T20:22:13.072Z,99878.38
2023-04-22T20:24:44.104Z,99879.06
2023-04-22T20:27:15.818Z,99879.91
2023-04-22T20:29:45.537Z,99876.31
2023-04-22T20:32:16.873Z,99875.59
2023-04-22T20:34:47.058Z,99875.59
2023-04-22T20:37:20.220Z,99875.59
2023-04-22T20:39:50.408Z,99872.03
2023-04-22T20:42:23.359Z,99880.03
2023-04-22T20:44:52.364Z,99882.75
2023-04-22T20:47:23.012Z,99880.38
2023-04-22T20:49:59.028Z,99873.56
2023-04-22T20:52:29.320Z,99876.31
2023-04-22T20:54:58.890Z,99870.22
2023-04-22T20:57:29.858Z,99866.78
2023-04-22T20:59:58.371Z,99872.97
2023-04-22T21:02:28.399Z,99877.50
2023-04-22T21:04:58.950Z,99874.41
2023-04-22T21:07:32.011Z,99879.19
2023-04-22T21:10:01.860Z,99877.13
2023-04-22T21:12:36.730Z,99880.72
2023-04-22T21:15:06.693Z,99877.00
2023-04-22T21:17:40.152Z,99877.88
2023-04-22T21:20:12.412Z,99875.22
2023-04-22T21:22:44.418Z,99875.22
2023-04-22T21:25:21.748Z,99878.69
2023-04-22T21:27:54.496Z,99880.94
2023-04-22T21:30:23.922Z,99872.69
2023-04-22T21:32:52.767Z,99876.28
2023-04-22T21:35:24.075Z,99856.47
2023-04-22T21:37:53.894Z,99855.16
2023-04-22T21:40:22.614Z,99861.84
2023-04-22T21:42:52.629Z,99860.75
2023-04-22T21:45:22.254Z,99858.13
2023-04-22T21:47:51.177Z,99852.66
2023-04-22T21:50:23.290Z,99848.44
2023-04-22T21:52:53.702Z,99842.00
2023-04-22T21:55:37.623Z,99839.50
2023-04-22T21:58:07.780Z,99836.53
2023-04-22T22:00:42.402Z,99836.63
2023-04-22T22:03:13.016Z,99832.94
2023-04-22T22:05:42.031Z,99835.56
2023-04-22T22:08:11.332Z,99837.25
2023-04-22T22:10:39.929Z,99835.56
2023-04-22T22:13:09.921Z,99841.66
2023-04-22T22:15:38.758Z,99837.38
2023-04-22T22:18:08.080Z,99831.72
2023-04-22T22:20:38.800Z,99842.25
2023-04-22T22:23:07.890Z,99834.75
2023-04-22T22:25:38.579Z,99843.44
2023-04-22T22:28:11.189Z,99834.25
2023-04-22T22:30:39.818Z,99837.81
2023-04-22T22:33:08.733Z,99843.91
2023-04-22T22:35:37.312Z,99845.69
2023-04-22T22:38:10.222Z,99849.41
2023-04-22T22:40:38.718Z,99842.72
2023-04-22T22:43:07.677Z,99849.84
2023-04-22T22:45:38.935Z,99850.81
2023-04-22T22:48:07.877Z,99851.66
2023-04-22T22:50:36.598Z,99850.94
2023-04-22T22:53:04.943Z,99842.09
2023-04-22T22:55:34.525Z,99848.81
2023-04-22T22:58:03.084Z,99842.59
2023-04-22T23:00:31.718Z,99839.97
2023-04-22T23:03:02.355Z,99843.19
2023-04-22T23:05:30.739Z,99841.75
2023-04-22T23:07:59.268Z,99847.84
2023-04-22T23:10:27.887Z,99847.09
2023-04-22T23:12:56.607Z,99849.97
2023-04-22T23:15:25.173Z,99854.38
2023-04-22T23:17:54.679Z,99845.78
2023-04-22T23:20:25.857Z,99843.28
2023-04-22T23:22:57.365Z,99845.06
2023-04-22T23:25:26.874Z,99843.28
2023-04-22T23:27:57.572Z,99839.56
2023-04-22T23:30:26.603Z,99843.53
2023-04-22T23:32:59.721Z,99844.25
2023-04-22T23:35:31.320Z,99834.44
2023-04-22T23:38:02.149Z,99829.31
2023-04-22T23:40:32.095Z,99833.03
2023-04-22T23:43:00.931Z,99839.94
2023-04-22T23:45:38.031Z,99835.75
2023-04-22T23:48:09.078Z,99829.66
2023-04-22T23:50:40.846Z,99835.16
2023-04-22T23:53:10.462Z,99836.09
2023-04-22T23:55:40.133Z,99848.19
2023-04-22T23:58:09.162Z,99840.91
